sensor_id;sensor_type;location;lat;lon;timestamp;P1;durP1;ratioP1;P2;durP2;ratioP2
75682;SDS011;64295;44.772;39.872;2023-01-01T00:00:26;38.72;;;19.83;;
75682;SDS011;64295;44.772;39.872;2023-01-01T00:02:52;42.42;;;18.13;;
75682;SDS011;64295;44.772;39.872;2023-01-01T00:05:18;36.58;;;17.17;;
75682;SDS011;64295;44.772;39.872;2023-01-01T00:07:44;39.22;;;16.95;;
75682;SDS011;64295;44.772;39.872;2023-01-01T00:10:10;35.40;;;17.02;;
75682;SDS011;64295;44.772;39.872;2023-01-01T00:13:03;34.40;;;16.45;;
75682;SDS011;64295;44.772;39.872;2023-01-01T00:15:44;38.72;;;17.65;;
75682;SDS011;64295;44.772;39.872;2023-01-01T00:18:20;37.05;;;16.13;;
75682;SDS011;64295;44.772;39.872;2023-01-01T00:21:00;41.80;;;19.05;;
75682;SDS011;64295;44.772;39.872;2023-01-01T00:23:46;36.25;;;16.05;;
75682;SDS011;64295;44.772;39.872;2023-01-01T00:26:23;34.72;;;15.38;;
75682;SDS011;64295;44.772;39.872;2023-01-01T00:28:59;33.60;;;14.45;;
75682;SDS011;64295;44.772;39.872;2023-01-01T00:41:01;23.08;;;12.02;;
75682;SDS011;64295;44.772;39.872;2023-01-01T00:44:20;27.65;;;12.25;;
75682;SDS011;64295;44.772;39.872;2023-01-01T00:47:40;20.98;;;10.20;;
75682;SDS011;64295;44.772;39.872;2023-01-01T00:51:02;20.70;;;10.38;;
75682;SDS011;64295;44.772;39.872;2023-01-01T00:53:50;24.30;;;11.25;;
75682;SDS011;64295;44.772;39.872;2023-01-01T00:56:26;22.83;;;11.02;;
75682;SDS011;64295;44.772;39.872;2023-01-01T00:59:20;19.25;;;9.57;;
75682;SDS011;64295;44.772;39.872;2023-01-01T01:02:39;21.17;;;9.40;;
75682;SDS011;64295;44.772;39.872;2023-01-01T01:05:06;42.03;;;18.70;;
75682;SDS011;64295;44.772;39.872;2023-01-01T01:07:35;23.30;;;10.02;;
75682;SDS011;64295;44.772;39.872;2023-01-01T01:10:02;19.73;;;8.85;;
75682;SDS011;64295;44.772;39.872;2023-01-01T01:12:32;13.23;;;7.53;;
75682;SDS011;64295;44.772;39.872;2023-01-01T01:14:59;16.42;;;7.63;;
75682;SDS011;64295;44.772;39.872;2023-01-01T01:17:25;17.73;;;8.38;;
75682;SDS011;64295;44.772;39.872;2023-01-01T01:19:54;63.90;;;25.42;;
75682;SDS011;64295;44.772;39.872;2023-01-01T01:22:20;16.35;;;9.40;;
75682;SDS011;64295;44.772;39.872;2023-01-01T01:24:46;15.45;;;7.25;;
75682;SDS011;64295;44.772;39.872;2023-01-01T01:27:12;19.42;;;8.25;;
75682;SDS011;64295;44.772;39.872;2023-01-01T01:29:38;15.40;;;7.32;;
75682;SDS011;64295;44.772;39.872;2023-01-01T01:32:07;18.55;;;7.93;;
75682;SDS011;64295;44.772;39.872;2023-01-01T01:34:40;19.25;;;7.72;;
75682;SDS011;64295;44.772;39.872;2023-01-01T01:37:17;15.05;;;6.97;;
75682;SDS011;64295;44.772;39.872;2023-01-01T01:39:59;14.70;;;6.55;;
75682;SDS011;64295;44.772;39.872;2023-01-01T01:42:26;13.18;;;6.32;;
75682;SDS011;64295;44.772;39.872;2023-01-01T01:44:56;15.07;;;5.90;;
75682;SDS011;64295;44.772;39.872;2023-01-01T01:47:34;16.10;;;6.60;;
75682;SDS011;64295;44.772;39.872;2023-01-01T01:50:17;15.45;;;6.38;;
75682;SDS011;64295;44.772;39.872;2023-01-01T01:53:06;16.38;;;6.05;;
75682;SDS011;64295;44.772;39.872;2023-01-01T01:56:07;9.75;;;5.32;;
75682;SDS011;64295;44.772;39.872;2023-01-01T01:58:37;8.52;;;5.53;;
75682;SDS011;64295;44.772;39.872;2023-01-01T02:01:03;16.80;;;6.85;;
75682;SDS011;64295;44.772;39.872;2023-01-01T02:03:36;18.48;;;6.55;;
75682;SDS011;64295;44.772;39.872;2023-01-01T02:06:12;11.75;;;6.03;;
75682;SDS011;64295;44.772;39.872;2023-01-01T02:08:39;9.88;;;6.00;;
75682;SDS011;64295;44.772;39.872;2023-01-01T02:11:06;12.85;;;5.43;;
75682;SDS011;64295;44.772;39.872;2023-01-01T02:13:37;14.02;;;5.75;;
75682;SDS011;64295;44.772;39.872;2023-01-01T02:16:22;11.27;;;5.13;;
75682;SDS011;64295;44.772;39.872;2023-01-01T02:24:55;13.20;;;6.10;;
75682;SDS011;64295;44.772;39.872;2023-01-01T02:30:12;12.15;;;5.30;;
75682;SDS011;64295;44.772;39.872;2023-01-01T02:32:46;15.40;;;6.32;;
75682;SDS011;64295;44.772;39.872;2023-01-01T02:35:23;14.70;;;5.75;;
75682;SDS011;64295;44.772;39.872;2023-01-01T02:38:03;15.25;;;5.85;;
75682;SDS011;64295;44.772;39.872;2023-01-01T02:41:18;13.95;;;5.85;;
75682;SDS011;64295;44.772;39.872;2023-01-01T02:43:41;12.00;;;6.47;;
75682;SDS011;64295;44.772;39.872;2023-01-01T02:46:09;18.55;;;5.88;;
75682;SDS011;64295;44.772;39.872;2023-01-01T02:51:27;17.80;;;7.05;;
75682;SDS011;64295;44.772;39.872;2023-01-01T02:56:46;13.65;;;6.45;;
75682;SDS011;64295;44.772;39.872;2023-01-01T03:08:51;12.95;;;6.80;;
75682;SDS011;64295;44.772;39.872;2023-01-01T03:11:23;17.38;;;5.80;;
75682;SDS011;64295;44.772;39.872;2023-01-01T03:16:30;12.82;;;5.50;;
75682;SDS011;64295;44.772;39.872;2023-01-01T03:21:49;11.23;;;6.25;;
75682;SDS011;64295;44.772;39.872;2023-01-01T03:27:01;17.10;;;5.95;;
75682;SDS011;64295;44.772;39.872;2023-01-01T03:29:30;12.15;;;5.53;;
75682;SDS011;64295;44.772;39.872;2023-01-01T03:32:00;11.43;;;5.03;;
75682;SDS011;64295;44.772;39.872;2023-01-01T03:34:32;12.30;;;4.75;;
75682;SDS011;64295;44.772;39.872;2023-01-01T03:37:14;10.07;;;4.78;;
75682;SDS011;64295;44.772;39.872;2023-01-01T03:39:50;10.13;;;5.00;;
75682;SDS011;64295;44.772;39.872;2023-01-01T03:42:33;8.02;;;4.32;;
75682;SDS011;64295;44.772;39.872;2023-01-01T03:45:23;10.10;;;5.43;;
75682;SDS011;64295;44.772;39.872;2023-01-01T03:47:54;9.45;;;4.53;;
75682;SDS011;64295;44.772;39.872;2023-01-01T03:50:45;12.70;;;5.32;;
75682;SDS011;64295;44.772;39.872;2023-01-01T03:56:18;15.10;;;5.22;;
75682;SDS011;64295;44.772;39.872;2023-01-01T03:59:05;15.40;;;6.45;;
75682;SDS011;64295;44.772;39.872;2023-01-01T04:01:36;11.80;;;5.85;;
75682;SDS011;64295;44.772;39.872;2023-01-01T04:04:07;10.73;;;5.28;;
75682;SDS011;64295;44.772;39.872;2023-01-01T04:06:34;14.00;;;6.53;;
75682;SDS011;64295;44.772;39.872;2023-01-01T04:09:08;13.93;;;6.05;;
75682;SDS011;64295;44.772;39.872;2023-01-01T04:12:23;9.05;;;5.45;;
75682;SDS011;64295;44.772;39.872;2023-01-01T04:14:58;13.27;;;6.18;;
75682;SDS011;64295;44.772;39.872;2023-01-01T04:17:24;10.38;;;5.43;;
75682;SDS011;64295;44.772;39.872;2023-01-01T04:19:58;13.77;;;6.47;;
75682;SDS011;64295;44.772;39.872;2023-01-01T04:22:29;15.80;;;6.75;;
75682;SDS011;64295;44.772;39.872;2023-01-01T04:24:57;15.32;;;5.63;;
75682;SDS011;64295;44.772;39.872;2023-01-01T04:27:30;14.63;;;5.35;;
75682;SDS011;64295;44.772;39.872;2023-01-01T04:29:55;13.55;;;6.65;;
75682;SDS011;64295;44.772;39.872;2023-01-01T04:32:37;12.27;;;5.63;;
75682;SDS011;64295;44.772;39.872;2023-01-01T04:37:35;14.65;;;7.07;;
75682;SDS011;64295;44.772;39.872;2023-01-01T04:40:02;13.18;;;6.80;;
75682;SDS011;64295;44.772;39.872;2023-01-01T04:42:29;11.35;;;5.38;;
75682;SDS011;64295;44.772;39.872;2023-01-01T04:44:58;13.77;;;6.18;;
75682;SDS011;64295;44.772;39.872;2023-01-01T04:47:25;19.17;;;7.32;;
75682;SDS011;64295;44.772;39.872;2023-01-01T04:50:07;16.10;;;6.43;;
75682;SDS011;64295;44.772;39.872;2023-01-01T04:55:49;13.10;;;5.65;;
75682;SDS011;64295;44.772;39.872;2023-01-01T04:58:27;13.65;;;5.90;;
75682;SDS011;64295;44.772;39.872;2023-01-01T05:00:53;20.52;;;8.57;;
75682;SDS011;64295;44.772;39.872;2023-01-01T05:03:18;12.80;;;6.10;;
75682;SDS011;64295;44.772;39.872;2023-01-01T05:05:44;16.45;;;8.10;;
75682;SDS011;64295;44.772;39.872;2023-01-01T05:08:11;14.88;;;6.82;;
75682;SDS011;64295;44.772;39.872;2023-01-01T05:10:37;19.10;;;7.45;;
75682;SDS011;64295;44.772;39.872;2023-01-01T05:13:07;16.02;;;7.78;;
75682;SDS011;64295;44.772;39.872;2023-01-01T05:15:43;18.38;;;7.85;;
75682;SDS011;64295;44.772;39.872;2023-01-01T05:18:14;18.23;;;7.90;;
75682;SDS011;64295;44.772;39.872;2023-01-01T05:20:49;19.75;;;8.02;;
75682;SDS011;64295;44.772;39.872;2023-01-01T05:23:27;23.08;;;10.77;;
75682;SDS011;64295;44.772;39.872;2023-01-01T05:25:55;21.42;;;8.15;;
75682;SDS011;64295;44.772;39.872;2023-01-01T05:28:29;19.83;;;8.07;;
75682;SDS011;64295;44.772;39.872;2023-01-01T05:31:09;18.65;;;8.10;;
75682;SDS011;64295;44.772;39.872;2023-01-01T05:33:47;13.88;;;5.97;;
75682;SDS011;64295;44.772;39.872;2023-01-01T05:36:16;12.63;;;5.15;;
75682;SDS011;64295;44.772;39.872;2023-01-01T05:38:45;11.45;;;5.13;;
75682;SDS011;64295;44.772;39.872;2023-01-01T05:41:17;8.63;;;4.93;;
75682;SDS011;64295;44.772;39.872;2023-01-01T05:43:47;10.25;;;5.07;;
75682;SDS011;64295;44.772;39.872;2023-01-01T05:46:18;14.70;;;5.32;;
75682;SDS011;64295;44.772;39.872;2023-01-01T05:48:46;14.90;;;5.07;;
75682;SDS011;64295;44.772;39.872;2023-01-01T05:51:21;18.92;;;4.25;;
75682;SDS011;64295;44.772;39.872;2023-01-01T05:53:54;9.10;;;4.82;;
75682;SDS011;64295;44.772;39.872;2023-01-01T05:56:24;11.27;;;4.45;;
75682;SDS011;64295;44.772;39.872;2023-01-01T05:59:01;11.65;;;5.25;;
75682;SDS011;64295;44.772;39.872;2023-01-01T06:01:34;11.13;;;4.43;;
75682;SDS011;64295;44.772;39.872;2023-01-01T06:04:00;10.88;;;5.47;;
75682;SDS011;64295;44.772;39.872;2023-01-01T06:06:28;8.68;;;4.75;;
75682;SDS011;64295;44.772;39.872;2023-01-01T06:12:50;8.32;;;3.97;;
75682;SDS011;64295;44.772;39.872;2023-01-01T06:15:16;16.25;;;4.72;;
75682;SDS011;64295;44.772;39.872;2023-01-01T06:17:56;7.55;;;4.15;;
75682;SDS011;64295;44.772;39.872;2023-01-01T06:20:23;7.30;;;3.95;;
75682;SDS011;64295;44.772;39.872;2023-01-01T06:22:50;8.90;;;4.28;;
75682;SDS011;64295;44.772;39.872;2023-01-01T06:25:25;8.90;;;4.85;;
75682;SDS011;64295;44.772;39.872;2023-01-01T06:28:00;7.35;;;3.97;;
75682;SDS011;64295;44.772;39.872;2023-01-01T06:30:42;10.00;;;4.28;;
75682;SDS011;64295;44.772;39.872;2023-01-01T06:33:15;8.95;;;3.95;;
75682;SDS011;64295;44.772;39.872;2023-01-01T06:35:45;11.95;;;5.03;;
75682;SDS011;64295;44.772;39.872;2023-01-01T06:38:24;11.43;;;4.47;;
75682;SDS011;64295;44.772;39.872;2023-01-01T06:41:03;7.95;;;4.55;;
75682;SDS011;64295;44.772;39.872;2023-01-01T06:43:35;8.57;;;4.30;;
75682;SDS011;64295;44.772;39.872;2023-01-01T06:49:57;11.80;;;4.88;;
75682;SDS011;64295;44.772;39.872;2023-01-01T06:52:26;7.80;;;4.68;;
75682;SDS011;64295;44.772;39.872;2023-01-01T06:54:52;10.52;;;4.90;;
75682;SDS011;64295;44.772;39.872;2023-01-01T06:57:18;9.15;;;4.75;;
75682;SDS011;64295;44.772;39.872;2023-01-01T06:59:44;9.50;;;5.35;;
75682;SDS011;64295;44.772;39.872;2023-01-01T07:02:10;12.80;;;6.10;;
75682;SDS011;64295;44.772;39.872;2023-01-01T07:04:37;12.70;;;6.53;;
75682;SDS011;64295;44.772;39.872;2023-01-01T07:07:09;14.73;;;7.13;;
75682;SDS011;64295;44.772;39.872;2023-01-01T07:09:36;14.38;;;6.57;;
75682;SDS011;64295;44.772;39.872;2023-01-01T07:12:08;11.80;;;4.82;;
75682;SDS011;64295;44.772;39.872;2023-01-01T07:14:42;9.18;;;4.95;;
75682;SDS011;64295;44.772;39.872;2023-01-01T07:17:14;12.15;;;5.57;;
75682;SDS011;64295;44.772;39.872;2023-01-01T07:19:40;9.85;;;4.53;;
75682;SDS011;64295;44.772;39.872;2023-01-01T07:22:07;11.20;;;5.15;;
75682;SDS011;64295;44.772;39.872;2023-01-01T07:24:35;11.63;;;6.15;;
75682;SDS011;64295;44.772;39.872;2023-01-01T07:27:01;10.75;;;5.55;;
75682;SDS011;64295;44.772;39.872;2023-01-01T07:29:27;10.57;;;4.85;;
75682;SDS011;64295;44.772;39.872;2023-01-01T07:31:52;13.38;;;5.75;;
75682;SDS011;64295;44.772;39.872;2023-01-01T07:34:18;9.18;;;5.22;;
75682;SDS011;64295;44.772;39.872;2023-01-01T07:36:44;10.23;;;4.75;;
75682;SDS011;64295;44.772;39.872;2023-01-01T07:39:10;9.10;;;5.57;;
75682;SDS011;64295;44.772;39.872;2023-01-01T07:41:36;10.32;;;4.47;;
75682;SDS011;64295;44.772;39.872;2023-01-01T07:44:03;12.90;;;5.60;;
75682;SDS011;64295;44.772;39.872;2023-01-01T07:46:29;11.35;;;5.15;;
75682;SDS011;64295;44.772;39.872;2023-01-01T07:48:56;8.85;;;4.82;;
75682;SDS011;64295;44.772;39.872;2023-01-01T07:51:22;12.50;;;5.68;;
75682;SDS011;64295;44.772;39.872;2023-01-01T07:53:49;11.23;;;5.40;;
75682;SDS011;64295;44.772;39.872;2023-01-01T07:56:15;10.07;;;5.47;;
75682;SDS011;64295;44.772;39.872;2023-01-01T07:58:41;10.52;;;5.05;;
75682;SDS011;64295;44.772;39.872;2023-01-01T08:01:11;10.85;;;5.85;;
75682;SDS011;64295;44.772;39.872;2023-01-01T08:03:38;9.10;;;5.30;;
75682;SDS011;64295;44.772;39.872;2023-01-01T08:06:06;14.02;;;6.15;;
75682;SDS011;64295;44.772;39.872;2023-01-01T08:08:35;14.40;;;7.13;;
75682;SDS011;64295;44.772;39.872;2023-01-01T08:11:02;13.43;;;6.13;;
75682;SDS011;64295;44.772;39.872;2023-01-01T08:13:28;14.43;;;7.13;;
75682;SDS011;64295;44.772;39.872;2023-01-01T08:15:57;13.75;;;6.18;;
75682;SDS011;64295;44.772;39.872;2023-01-01T08:18:24;11.75;;;5.97;;
75682;SDS011;64295;44.772;39.872;2023-01-01T08:20:50;11.55;;;5.72;;
75682;SDS011;64295;44.772;39.872;2023-01-01T08:23:15;12.50;;;6.65;;
75682;SDS011;64295;44.772;39.872;2023-01-01T08:25:41;11.40;;;5.50;;
75682;SDS011;64295;44.772;39.872;2023-01-01T08:28:14;11.27;;;5.78;;
75682;SDS011;64295;44.772;39.872;2023-01-01T08:30:40;12.02;;;5.20;;
75682;SDS011;64295;44.772;39.872;2023-01-01T08:33:06;8.40;;;4.47;;
75682;SDS011;64295;44.772;39.872;2023-01-01T08:35:32;9.40;;;5.32;;
75682;SDS011;64295;44.772;39.872;2023-01-01T08:38:01;10.00;;;5.40;;
75682;SDS011;64295;44.772;39.872;2023-01-01T08:40:27;10.10;;;5.13;;
75682;SDS011;64295;44.772;39.872;2023-01-01T08:42:53;12.20;;;5.93;;
75682;SDS011;64295;44.772;39.872;2023-01-01T08:45:19;9.50;;;4.57;;
75682;SDS011;64295;44.772;39.872;2023-01-01T08:47:45;10.13;;;5.25;;
75682;SDS011;64295;44.772;39.872;2023-01-01T08:50:11;9.48;;;5.07;;
75682;SDS011;64295;44.772;39.872;2023-01-01T08:52:37;7.95;;;4.80;;
75682;SDS011;64295;44.772;39.872;2023-01-01T08:55:03;8.55;;;5.35;;
75682;SDS011;64295;44.772;39.872;2023-01-01T08:57:29;7.80;;;4.40;;
75682;SDS011;64295;44.772;39.872;2023-01-01T08:59:55;6.75;;;4.28;;
75682;SDS011;64295;44.772;39.872;2023-01-01T09:02:21;7.63;;;4.18;;
75682;SDS011;64295;44.772;39.872;2023-01-01T09:04:47;5.75;;;3.20;;
75682;SDS011;64295;44.772;39.872;2023-01-01T09:07:13;7.60;;;3.80;;
75682;SDS011;64295;44.772;39.872;2023-01-01T09:09:39;3.75;;;2.28;;
75682;SDS011;64295;44.772;39.872;2023-01-01T09:12:05;4.65;;;2.55;;
75682;SDS011;64295;44.772;39.872;2023-01-01T09:14:33;8.57;;;2.80;;
75682;SDS011;64295;44.772;39.872;2023-01-01T09:16:59;5.57;;;2.35;;
75682;SDS011;64295;44.772;39.872;2023-01-01T09:19:26;4.80;;;2.22;;
75682;SDS011;64295;44.772;39.872;2023-01-01T09:21:52;5.13;;;2.72;;
75682;SDS011;64295;44.772;39.872;2023-01-01T09:24:18;4.47;;;2.92;;
75682;SDS011;64295;44.772;39.872;2023-01-01T09:26:45;3.92;;;2.25;;
75682;SDS011;64295;44.772;39.872;2023-01-01T09:29:11;5.70;;;2.40;;
75682;SDS011;64295;44.772;39.872;2023-01-01T09:31:37;4.85;;;2.40;;
75682;SDS011;64295;44.772;39.872;2023-01-01T09:34:03;5.03;;;3.08;;
75682;SDS011;64295;44.772;39.872;2023-01-01T09:36:29;3.30;;;2.03;;
75682;SDS011;64295;44.772;39.872;2023-01-01T09:38:57;4.95;;;2.40;;
75682;SDS011;64295;44.772;39.872;2023-01-01T09:44:08;4.22;;;2.28;;
75682;SDS011;64295;44.772;39.872;2023-01-01T09:46:50;4.80;;;2.30;;
75682;SDS011;64295;44.772;39.872;2023-01-01T09:49:24;4.43;;;2.20;;
75682;SDS011;64295;44.772;39.872;2023-01-01T09:51:55;5.57;;;2.72;;
75682;SDS011;64295;44.772;39.872;2023-01-01T09:54:34;3.22;;;2.20;;
75682;SDS011;64295;44.772;39.872;2023-01-01T09:57:12;3.00;;;1.75;;
75682;SDS011;64295;44.772;39.872;2023-01-01T09:59:38;6.15;;;2.35;;
75682;SDS011;64295;44.772;39.872;2023-01-01T10:13:56;4.68;;;2.72;;
75682;SDS011;64295;44.772;39.872;2023-01-01T10:18:55;4.97;;;2.88;;
75682;SDS011;64295;44.772;39.872;2023-01-01T10:21:29;4.05;;;2.83;;
75682;SDS011;64295;44.772;39.872;2023-01-01T10:24:02;4.43;;;2.90;;
75682;SDS011;64295;44.772;39.872;2023-01-01T10:26:47;4.28;;;2.97;;
75682;SDS011;64295;44.772;39.872;2023-01-01T10:29:20;5.68;;;3.28;;
75682;SDS011;64295;44.772;39.872;2023-01-01T10:31:52;5.25;;;3.33;;
75682;SDS011;64295;44.772;39.872;2023-01-01T10:34:21;7.95;;;3.78;;
75682;SDS011;64295;44.772;39.872;2023-01-01T10:36:53;10.02;;;4.57;;
75682;SDS011;64295;44.772;39.872;2023-01-01T10:39:21;7.20;;;3.90;;
75682;SDS011;64295;44.772;39.872;2023-01-01T10:41:48;5.15;;;3.63;;
75682;SDS011;64295;44.772;39.872;2023-01-01T10:44:15;6.05;;;3.58;;
75682;SDS011;64295;44.772;39.872;2023-01-01T10:46:47;9.80;;;4.40;;
75682;SDS011;64295;44.772;39.872;2023-01-01T10:49:52;7.88;;;3.53;;
75682;SDS011;64295;44.772;39.872;2023-01-01T10:56:10;6.93;;;3.75;;
75682;SDS011;64295;44.772;39.872;2023-01-01T10:59:00;6.60;;;3.90;;
75682;SDS011;64295;44.772;39.872;2023-01-01T11:01:31;6.07;;;4.75;;
75682;SDS011;64295;44.772;39.872;2023-01-01T11:09:02;4.95;;;3.47;;
75682;SDS011;64295;44.772;39.872;2023-01-01T11:11:32;7.60;;;4.78;;
75682;SDS011;64295;44.772;39.872;2023-01-01T11:14:14;6.95;;;3.90;;
75682;SDS011;64295;44.772;39.872;2023-01-01T11:16:47;5.72;;;3.90;;
75682;SDS011;64295;44.772;39.872;2023-01-01T11:19:19;7.40;;;3.55;;
75682;SDS011;64295;44.772;39.872;2023-01-01T11:21:58;5.72;;;3.80;;
75682;SDS011;64295;44.772;39.872;2023-01-01T11:24:25;7.72;;;4.70;;
75682;SDS011;64295;44.772;39.872;2023-01-01T11:27:10;8.30;;;5.15;;
75682;SDS011;64295;44.772;39.872;2023-01-01T11:29:46;6.65;;;4.75;;
75682;SDS011;64295;44.772;39.872;2023-01-01T11:32:25;6.25;;;4.65;;
75682;SDS011;64295;44.772;39.872;2023-01-01T11:35:04;5.68;;;3.50;;
75682;SDS011;64295;44.772;39.872;2023-01-01T11:37:45;5.82;;;4.03;;
75682;SDS011;64295;44.772;39.872;2023-01-01T11:40:26;6.00;;;4.90;;
75682;SDS011;64295;44.772;39.872;2023-01-01T11:43:01;6.85;;;5.25;;
75682;SDS011;64295;44.772;39.872;2023-01-01T11:45:34;6.70;;;4.15;;
75682;SDS011;64295;44.772;39.872;2023-01-01T11:48:16;7.38;;;4.65;;
75682;SDS011;64295;44.772;39.872;2023-01-01T11:51:00;6.53;;;3.95;;
75682;SDS011;64295;44.772;39.872;2023-01-01T11:53:33;7.55;;;4.82;;
75682;SDS011;64295;44.772;39.872;2023-01-01T12:02:39;8.82;;;5.25;;
75682;SDS011;64295;44.772;39.872;2023-01-01T12:08:03;7.18;;;4.80;;
75682;SDS011;64295;44.772;39.872;2023-01-01T12:10:39;7.30;;;5.07;;
75682;SDS011;64295;44.772;39.872;2023-01-01T12:13:13;9.63;;;5.13;;
75682;SDS011;64295;44.772;39.872;2023-01-01T12:16:38;7.78;;;4.65;;
75682;SDS011;64295;44.772;39.872;2023-01-01T12:21:45;6.75;;;4.22;;
75682;SDS011;64295;44.772;39.872;2023-01-01T12:24:14;7.78;;;4.88;;
75682;SDS011;64295;44.772;39.872;2023-01-01T12:26:52;8.75;;;6.18;;
75682;SDS011;64295;44.772;39.872;2023-01-01T12:32:40;9.55;;;5.00;;
75682;SDS011;64295;44.772;39.872;2023-01-01T12:38:42;11.57;;;5.75;;
75682;SDS011;64295;44.772;39.872;2023-01-01T12:44:08;7.75;;;5.00;;
75682;SDS011;64295;44.772;39.872;2023-01-01T13:00:21;7.93;;;4.57;;
75682;SDS011;64295;44.772;39.872;2023-01-01T13:02:51;7.55;;;4.22;;
75682;SDS011;64295;44.772;39.872;2023-01-01T13:05:23;7.45;;;4.80;;
75682;SDS011;64295;44.772;39.872;2023-01-01T13:08:00;7.18;;;4.55;;
75682;SDS011;64295;44.772;39.872;2023-01-01T13:10:37;10.57;;;4.72;;
75682;SDS011;64295;44.772;39.872;2023-01-01T13:16:38;7.45;;;4.13;;
75682;SDS011;64295;44.772;39.872;2023-01-01T13:33:41;7.13;;;4.18;;
75682;SDS011;64295;44.772;39.872;2023-01-01T13:38:47;7.03;;;4.18;;
75682;SDS011;64295;44.772;39.872;2023-01-01T13:41:57;6.88;;;4.45;;
75682;SDS011;64295;44.772;39.872;2023-01-01T14:03:41;9.20;;;4.68;;
75682;SDS011;64295;44.772;39.872;2023-01-01T14:06:34;9.00;;;5.07;;
75682;SDS011;64295;44.772;39.872;2023-01-01T14:09:22;7.68;;;4.53;;
75682;SDS011;64295;44.772;39.872;2023-01-01T14:11:49;7.68;;;5.15;;
75682;SDS011;64295;44.772;39.872;2023-01-01T14:16:54;7.63;;;4.82;;
75682;SDS011;64295;44.772;39.872;2023-01-01T14:19:23;8.52;;;4.88;;
75682;SDS011;64295;44.772;39.872;2023-01-01T14:21:50;8.82;;;4.85;;
75682;SDS011;64295;44.772;39.872;2023-01-01T14:24:17;8.75;;;4.60;;
75682;SDS011;64295;44.772;39.872;2023-01-01T14:26:45;10.07;;;5.88;;
75682;SDS011;64295;44.772;39.872;2023-01-01T14:29:34;9.23;;;5.38;;
75682;SDS011;64295;44.772;39.872;2023-01-01T14:32:10;7.25;;;4.25;;
75682;SDS011;64295;44.772;39.872;2023-01-01T14:34:38;6.35;;;4.53;;
75682;SDS011;64295;44.772;39.872;2023-01-01T14:37:05;5.80;;;3.83;;
75682;SDS011;64295;44.772;39.872;2023-01-01T14:39:46;6.18;;;3.95;;
75682;SDS011;64295;44.772;39.872;2023-01-01T14:42:31;10.98;;;6.20;;
75682;SDS011;64295;44.772;39.872;2023-01-01T14:44:58;9.25;;;5.63;;
75682;SDS011;64295;44.772;39.872;2023-01-01T14:47:25;7.18;;;4.47;;
75682;SDS011;64295;44.772;39.872;2023-01-01T14:50:09;10.20;;;5.00;;
75682;SDS011;64295;44.772;39.872;2023-01-01T14:52:42;8.00;;;5.10;;
75682;SDS011;64295;44.772;39.872;2023-01-01T14:55:11;7.80;;;5.00;;
75682;SDS011;64295;44.772;39.872;2023-01-01T14:57:44;7.40;;;4.68;;
75682;SDS011;64295;44.772;39.872;2023-01-01T15:00:22;10.70;;;4.82;;
75682;SDS011;64295;44.772;39.872;2023-01-01T15:02:50;7.05;;;4.80;;
75682;SDS011;64295;44.772;39.872;2023-01-01T15:05:25;8.70;;;5.38;;
75682;SDS011;64295;44.772;39.872;2023-01-01T15:07:57;11.25;;;4.57;;
75682;SDS011;64295;44.772;39.872;2023-01-01T15:10:28;8.85;;;5.38;;
75682;SDS011;64295;44.772;39.872;2023-01-01T15:12:56;7.28;;;4.93;;
75682;SDS011;64295;44.772;39.872;2023-01-01T15:15:41;6.78;;;4.88;;
75682;SDS011;64295;44.772;39.872;2023-01-01T15:18:33;9.18;;;4.85;;
75682;SDS011;64295;44.772;39.872;2023-01-01T15:29:09;9.48;;;5.38;;
75682;SDS011;64295;44.772;39.872;2023-01-01T15:31:40;7.43;;;4.57;;
75682;SDS011;64295;44.772;39.872;2023-01-01T15:34:42;8.40;;;4.78;;
75682;SDS011;64295;44.772;39.872;2023-01-01T15:37:14;8.25;;;5.53;;
75682;SDS011;64295;44.772;39.872;2023-01-01T15:39:55;8.90;;;5.38;;
75682;SDS011;64295;44.772;39.872;2023-01-01T15:42:38;11.07;;;5.40;;
75682;SDS011;64295;44.772;39.872;2023-01-01T15:47:51;8.40;;;5.18;;
75682;SDS011;64295;44.772;39.872;2023-01-01T15:53:19;9.32;;;5.22;;
75682;SDS011;64295;44.772;39.872;2023-01-01T15:55:48;8.75;;;4.90;;
75682;SDS011;64295;44.772;39.872;2023-01-01T15:58:22;9.52;;;5.38;;
75682;SDS011;64295;44.772;39.872;2023-01-01T16:00:56;7.05;;;4.22;;
75682;SDS011;64295;44.772;39.872;2023-01-01T16:03:25;8.70;;;4.88;;
75682;SDS011;64295;44.772;39.872;2023-01-01T16:05:52;8.57;;;5.55;;
75682;SDS011;64295;44.772;39.872;2023-01-01T16:08:22;8.93;;;5.32;;
75682;SDS011;64295;44.772;39.872;2023-01-01T16:10:49;8.07;;;4.93;;
75682;SDS011;64295;44.772;39.872;2023-01-01T16:13:16;9.82;;;5.78;;
75682;SDS011;64295;44.772;39.872;2023-01-01T16:15:49;7.75;;;5.18;;
75682;SDS011;64295;44.772;39.872;2023-01-01T16:18:22;8.13;;;5.28;;
75682;SDS011;64295;44.772;39.872;2023-01-01T16:20:53;7.15;;;4.85;;
75682;SDS011;64295;44.772;39.872;2023-01-01T16:23:19;8.48;;;4.88;;
75682;SDS011;64295;44.772;39.872;2023-01-01T16:25:46;8.95;;;5.15;;
75682;SDS011;64295;44.772;39.872;2023-01-01T16:28:12;8.95;;;4.88;;
75682;SDS011;64295;44.772;39.872;2023-01-01T16:30:38;11.00;;;5.35;;
75682;SDS011;64295;44.772;39.872;2023-01-01T16:33:09;7.82;;;4.68;;
75682;SDS011;64295;44.772;39.872;2023-01-01T16:35:41;7.63;;;4.80;;
75682;SDS011;64295;44.772;39.872;2023-01-01T16:38:07;7.57;;;4.75;;
75682;SDS011;64295;44.772;39.872;2023-01-01T16:40:33;8.25;;;4.60;;
75682;SDS011;64295;44.772;39.872;2023-01-01T16:43:00;7.55;;;4.55;;
75682;SDS011;64295;44.772;39.872;2023-01-01T16:45:28;8.40;;;5.32;;
75682;SDS011;64295;44.772;39.872;2023-01-01T16:47:54;9.82;;;4.80;;
75682;SDS011;64295;44.772;39.872;2023-01-01T16:50:20;7.38;;;4.47;;
75682;SDS011;64295;44.772;39.872;2023-01-01T16:52:46;8.00;;;4.53;;
75682;SDS011;64295;44.772;39.872;2023-01-01T16:55:12;7.22;;;4.75;;
75682;SDS011;64295;44.772;39.872;2023-01-01T16:57:39;6.75;;;4.63;;
75682;SDS011;64295;44.772;39.872;2023-01-01T17:00:08;6.95;;;4.45;;
75682;SDS011;64295;44.772;39.872;2023-01-01T17:02:35;9.18;;;5.28;;
75682;SDS011;64295;44.772;39.872;2023-01-01T17:05:01;11.20;;;5.85;;
75682;SDS011;64295;44.772;39.872;2023-01-01T17:07:28;6.88;;;4.28;;
75682;SDS011;64295;44.772;39.872;2023-01-01T17:10:00;7.07;;;4.85;;
75682;SDS011;64295;44.772;39.872;2023-01-01T17:12:38;9.15;;;6.40;;
75682;SDS011;64295;44.772;39.872;2023-01-01T17:15:06;8.35;;;4.40;;
75682;SDS011;64295;44.772;39.872;2023-01-01T17:17:32;7.78;;;4.50;;
75682;SDS011;64295;44.772;39.872;2023-01-01T17:19:58;11.30;;;5.15;;
75682;SDS011;64295;44.772;39.872;2023-01-01T17:22:24;10.07;;;5.30;;
75682;SDS011;64295;44.772;39.872;2023-01-01T17:24:50;8.95;;;4.80;;
75682;SDS011;64295;44.772;39.872;2023-01-01T17:27:16;11.05;;;5.60;;
75682;SDS011;64295;44.772;39.872;2023-01-01T17:29:42;8.75;;;4.78;;
75682;SDS011;64295;44.772;39.872;2023-01-01T17:32:08;10.65;;;5.68;;
75682;SDS011;64295;44.772;39.872;2023-01-01T17:34:35;8.90;;;5.55;;
75682;SDS011;64295;44.772;39.872;2023-01-01T17:37:02;13.77;;;7.00;;
75682;SDS011;64295;44.772;39.872;2023-01-01T17:39:29;11.05;;;6.93;;
75682;SDS011;64295;44.772;39.872;2023-01-01T17:41:56;7.95;;;5.00;;
75682;SDS011;64295;44.772;39.872;2023-01-01T17:44:22;9.25;;;4.88;;
75682;SDS011;64295;44.772;39.872;2023-01-01T17:46:48;14.45;;;6.45;;
75682;SDS011;64295;44.772;39.872;2023-01-01T17:49:16;10.32;;;5.93;;
75682;SDS011;64295;44.772;39.872;2023-01-01T17:51:42;9.63;;;5.93;;
75682;SDS011;64295;44.772;39.872;2023-01-01T17:56:39;9.25;;;5.20;;